createdAt,value
2023-11-09T00:01:31.303Z,99922.81
2023-11-09T00:06:33.454Z,99917.59
2023-11-09T00:11:36.224Z,99917.69
2023-11-09T00:16:37.070Z,99913.44
2023-11-09T00:21:39.209Z,99908.22
2023-11-09T00:26:43.016Z,99905.63
2023-11-09T00:31:43.932Z,99915.91
2023-11-09T00:36:46.087Z,99906.50
2023-11-09T00:41:46.886Z,99904.00
2023-11-09T00:46:47.700Z,99898.91
2023-11-09T00:51:49.847Z,99896.28
2023-11-09T00:56:50.691Z,99878.19
2023-11-09T01:01:51.464Z,99879.91
2023-11-09T01:06:53.637Z,99879.09
2023-11-09T01:11:54.422Z,99880.84
2023-11-09T01:16:55.213Z,99876.53
2023-11-09T01:21:57.477Z,99871.44
2023-11-09T01:26:58.302Z,99861.00
2023-11-09T01:31:59.813Z,99861.06
2023-11-09T01:37:01.992Z,99857.50
2023-11-09T01:42:03.116Z,99854.19
2023-11-09T01:47:04.548Z,99852.50
2023-11-09T01:52:07.755Z,99842.16
2023-11-09T01:57:11.389Z,99833.53
2023-11-09T02:02:12.399Z,99826.69
2023-11-09T02:07:14.695Z,99821.44
2023-11-09T02:12:15.543Z,99815.47
2023-11-09T02:17:16.513Z,99804.31
2023-11-09T02:22:20.083Z,99800.03
2023-11-09T02:27:22.289Z,99803.53
2023-11-09T02:32:23.130Z,99803.53
2023-11-09T02:37:26.056Z,99798.38
2023-11-09T02:42:28.256Z,99796.69
2023-11-09T02:47:29.102Z,99785.53
2023-11-09T02:52:30.009Z,99786.41
2023-11-09T02:57:32.186Z,99787.34
2023-11-09T03:02:33.682Z,99783.94
2023-11-09T03:07:34.482Z,99779.63
2023-11-09T03:12:36.787Z,99771.06
2023-11-09T03:17:38.500Z,99758.09
2023-11-09T03:22:39.393Z,99752.00
2023-11-09T03:27:41.597Z,99739.81
2023-11-09T03:32:42.439Z,99735.38
2023-11-09T03:37:43.905Z,99735.38
2023-11-09T03:42:46.905Z,99736.91
2023-11-09T03:47:47.754Z,99728.91
2023-11-09T03:52:48.808Z,99718.56
2023-11-09T03:57:50.942Z,99708.22
2023-11-09T04:02:51.790Z,99697.94
2023-11-09T04:07:52.669Z,99691.81
2023-11-09T04:12:54.803Z,99687.56
2023-11-09T04:17:55.612Z,99678.13
2023-11-09T04:22:56.433Z,99667.78
2023-11-09T04:27:58.936Z,99666.16
2023-11-09T04:33:01.284Z,99650.72
2023-11-09T04:38:03.790Z,99650.81
2023-11-09T04:43:07.344Z,99645.69
2023-11-09T04:48:09.683Z,99645.66
2023-11-09T04:53:30.895Z,99639.75
2023-11-09T04:58:49.139Z,99638.94
2023-11-09T05:04:07.843Z,99638.94
2023-11-09T05:09:08.737Z,99621.53
2023-11-09T05:14:10.847Z,99618.84
2023-11-09T05:19:12.023Z,99601.72
2023-11-09T05:24:12.826Z,99582.63
2023-11-09T05:29:14.949Z,99588.59
2023-11-09T05:34:16.352Z,99587.41
2023-11-09T05:39:17.223Z,99592.13
2023-11-09T05:44:19.405Z,99585.56
2023-11-09T05:49:20.287Z,99581.22
2023-11-09T05:54:21.379Z,99578.72
2023-11-09T05:59:24.556Z,99586.56
2023-11-09T06:04:25.582Z,99584.16
2023-11-09T06:09:26.641Z,99584.94
2023-11-09T06:14:29.158Z,99572.03
2023-11-09T06:19:30.206Z,99578.88
2023-11-09T06:24:31.091Z,99569.53
2023-11-09T06:29:34.085Z,99569.47
2023-11-09T06:34:35.650Z,99569.44
2023-11-09T06:39:36.547Z,99573.38
2023-11-09T06:44:38.647Z,99574.78
2023-11-09T06:49:39.703Z,99567.56
2023-11-09T06:54:41.826Z,99571.44
2023-11-09T06:59:43.991Z,99564.28
2023-11-09T07:04:44.965Z,99557.13
2023-11-09T07:09:46.495Z,99544.28
2023-11-09T07:14:48.732Z,99530.44
2023-11-09T07:19:50.120Z,99513.66
2023-11-09T07:25:01.689Z,99509.53
2023-11-09T07:30:11.257Z,99489.25
2023-11-09T07:35:12.014Z,99487.03
2023-11-09T07:40:14.769Z,99492.00
2023-11-09T07:45:17.396Z,99499.84
2023-11-09T07:50:18.382Z,99498.69
2023-11-09T07:55:20.487Z,99499.38
2023-11-09T08:00:24.386Z,99504.50
2023-11-09T08:05:26.590Z,99506.53
2023-11-09T08:10:28.483Z,99509.16
2023-11-09T08:15:30.683Z,99516.78
2023-11-09T08:20:32.497Z,99510.84
2023-11-09T08:25:33.281Z,99511.41
2023-11-09T08:30:35.471Z,99504.44
2023-11-09T08:35:36.532Z,99505.16
2023-11-09T08:40:37.736Z,99508.19
2023-11-09T08:45:40.470Z,99502.59
2023-11-09T08:50:42.332Z,99505.69
2023-11-09T08:55:43.169Z,99508.47
2023-11-09T09:00:45.886Z,99494.13
2023-11-09T09:05:46.740Z,99487.78
2023-11-09T09:10:58.453Z,99488.31
2023-11-09T09:15:59.250Z,99481.41
2023-11-09T09:21:00.248Z,99461.41
2023-11-09T09:26:14.881Z,99468.25
2023-11-09T09:31:17.623Z,99438.09
2023-11-09T09:36:20.064Z,99425.97
2023-11-09T09:41:30.156Z,99417.19
2023-11-09T09:46:34.580Z,99418.94
2023-11-09T09:51:37.928Z,99425.84
2023-11-09T09:56:41.238Z,99426.56
2023-11-09T10:01:48.804Z,99427.28
2023-11-09T10:06:49.956Z,99427.75
2023-11-09T10:11:54.219Z,99419.66
2023-11-09T10:16:55.526Z,99422.59
2023-11-09T10:22:06.425Z,99413.28
2023-11-09T10:27:09.971Z,99413.56
2023-11-09T10:32:20.495Z,99405.22
2023-11-09T10:37:21.527Z,99407.09
2023-11-09T10:42:27.305Z,99406.75
2023-11-09T10:47:34.305Z,99392.72
2023-11-09T10:52:36.495Z,99395.78
2023-11-09T10:57:41.451Z,99396.88
2023-11-09T11:02:51.433Z,99382.63
2023-11-09T11:07:54.043Z,99381.38
2023-11-09T11:12:59.932Z,99371.69
2023-11-09T11:18:14.906Z,99369.97
2023-11-09T11:23:46.409Z,99376.66
2023-11-09T11:28:49.870Z,99381.88
2023-11-09T11:33:53.039Z,99391.53
2023-11-09T11:39:19.080Z,99376.47
2023-11-09T11:44:32.153Z,99378.91
2023-11-09T11:49:37.552Z,99380.69
2023-11-09T11:54:38.482Z,99376.03
2023-11-09T11:59:42.147Z,99378.38
2023-11-09T12:04:48.468Z,99369.38
2023-11-09T12:09:50.157Z,99378.47
2023-11-09T12:14:52.896Z,99381.03
2023-11-09T12:19:54.532Z,99374.84
2023-11-09T12:25:01.637Z,99378.91
2023-11-09T12:30:04.565Z,99370.31
2023-11-09T12:35:05.919Z,99362.63
2023-11-09T12:40:08.201Z,99355.41
2023-11-09T12:45:12.907Z,99350.28
2023-11-09T12:50:18.211Z,99345.81
2023-11-09T12:55:24.407Z,99337.28
2023-11-09T13:00:31.181Z,99329.69
2023-11-09T13:05:34.530Z,99333.03
2023-11-09T13:10:39.390Z,99333.25
2023-11-09T13:15:43.242Z,99317.47
2023-11-09T13:20:48.751Z,99320.09
2023-11-09T13:25:51.163Z,99328.84
2023-11-09T13:30:55.326Z,99323.28
2023-11-09T13:35:58.648Z,99313.25
2023-11-09T13:41:16.780Z,99331.50
2023-11-09T13:46:24.043Z,99333.50
2023-11-09T13:51:28.730Z,99335.44
2023-11-09T13:57:03.101Z,99331.16
2023-11-09T14:02:10.560Z,99336.31
2023-11-09T14:07:14.295Z,99330.66
2023-11-09T14:12:35.668Z,99330.31
2023-11-09T14:17:38.899Z,99327.66
2023-11-09T14:22:41.013Z,99323.53
2023-11-09T14:27:41.972Z,99324.06
2023-11-09T14:32:45.333Z,99318.50
2023-11-09T14:37:47.332Z,99313.09
2023-11-09T14:42:52.485Z,99309.16
2023-11-09T14:48:02.320Z,99301.06
2023-11-09T14:53:20.181Z,99296.72
2023-11-09T14:58:32.167Z,99283.00
2023-11-09T15:03:35.707Z,99278.47
2023-11-09T15:08:38.408Z,99273.97
2023-11-09T15:13:39.366Z,99271.50
2023-11-09T15:18:43.821Z,99262.06
2023-11-09T15:23:45.352Z,99258.38
2023-11-09T15:28:46.290Z,99257.44
2023-11-09T15:33:48.454Z,99264.00
2023-11-09T15:38:50.655Z,99257.03
2023-11-09T15:43:55.788Z,99255.09
2023-11-09T15:49:00.170Z,99243.28
2023-11-09T15:54:01.058Z,99232.22
2023-11-09T15:59:01.951Z,99235.00
2023-11-09T16:04:05.808Z,99235.16
2023-11-09T16:09:10.870Z,99231.22
2023-11-09T16:14:11.663Z,99229.03
2023-11-09T16:19:14.451Z,99240.09
2023-11-09T16:24:16.486Z,99234.03
2023-11-09T16:29:17.631Z,99240.75
2023-11-09T16:34:20.171Z,99231.97
2023-11-09T16:39:22.616Z,99243.22
2023-11-09T16:44:25.478Z,99234.66
2023-11-09T16:49:27.730Z,99238.56
2023-11-09T16:54:28.573Z,99231.38
2023-11-09T16:59:29.740Z,99221.22
2023-11-09T17:04:31.986Z,99218.56
2023-11-09T17:09:33.099Z,99225.00
2023-11-09T17:14:33.905Z,99237.56
2023-11-09T17:19:36.077Z,99242.56
2023-11-09T17:24:38.122Z,99243.16
2023-11-09T17:29:38.900Z,99237.31
2023-11-09T17:34:41.032Z,99236.59
2023-11-09T17:39:42.596Z,99230.91
2023-11-09T17:44:44.587Z,99224.88
2023-11-09T17:49:49.533Z,99230.28
2023-11-09T17:54:50.727Z,99229.13
2023-11-09T17:59:51.573Z,99229.78
2023-11-09T18:04:53.801Z,99229.91
2023-11-09T18:09:54.886Z,99228.78
2023-11-09T18:14:58.304Z,99238.38
2023-11-09T18:20:00.566Z,99230.63
2023-11-09T18:25:01.420Z,99222.69
2023-11-09T18:30:02.252Z,99214.66
2023-11-09T18:35:07.561Z,99212.97
2023-11-09T18:40:10.280Z,99214.78
2023-11-09T18:45:11.431Z,99215.13
2023-11-09T18:55:18.063Z,99215.69
2023-11-09T19:00:19.886Z,99214.59
2023-11-09T19:05:22.156Z,99213.41
2023-11-09T19:10:23.310Z,99211.38
2023-11-09T19:15:26.257Z,99219.56
2023-11-09T19:25:35.251Z,99228.84
2023-11-09T19:30:36.141Z,99235.03
2023-11-09T19:35:38.408Z,99234.47
2023-11-09T19:40:46.414Z,99249.47
2023-11-09T19:45:48.080Z,99242.94
2023-11-09T19:50:50.593Z,99244.13
2023-11-09T19:55:52.229Z,99237.31
2023-11-09T20:00:53.470Z,99231.66
2023-11-09T20:05:56.467Z,99227.53
2023-11-09T20:10:57.236Z,99224.09
2023-11-09T20:15:58.296Z,99217.19
2023-11-09T20:21:00.911Z,99204.94
2023-11-09T20:26:01.750Z,99207.41
2023-11-09T20:31:02.650Z,99198.94
2023-11-09T20:36:05.414Z,99200.13
2023-11-09T20:41:06.287Z,99193.19
2023-11-09T20:46:10.307Z,99180.19
2023-11-09T20:51:14.765Z,99181.63
2023-11-09T20:56:15.978Z,99201.25
2023-11-09T21:01:16.835Z,99199.59
2023-11-09T21:06:19.186Z,99201.56
2023-11-09T21:11:20.033Z,99181.22
2023-11-09T21:16:20.874Z,99177.91
2023-11-09T21:21:23.060Z,99161.75
2023-11-09T21:26:24.165Z,99154.16
2023-11-09T21:31:25.198Z,99154.19
2023-11-09T21:36:27.445Z,99143.81
2023-11-09T21:41:28.713Z,99139.56
2023-11-09T21:46:29.643Z,99139.66
2023-11-09T21:51:34.035Z,99133.75
2023-11-09T21:56:41.405Z,99142.38
2023-11-09T22:01:42.504Z,99145.97
2023-11-09T22:06:44.766Z,99133.69
2023-11-09T22:11:45.873Z,99127.72
2023-11-09T22:16:46.836Z,99140.75
2023-11-09T22:21:49.989Z,99145.78
2023-11-09T22:26:50.921Z,99142.25
2023-11-09T22:31:51.763Z,99137.78
2023-11-09T22:36:53.878Z,99140.59
2023-11-09T22:41:55.414Z,99143.00
2023-11-09T22:46:56.196Z,99148.13
2023-11-09T22:51:58.691Z,99147.03
2023-11-09T22:56:59.583Z,99138.34
2023-11-09T23:02:01.065Z,99129.66
2023-11-09T23:07:03.243Z,99133.91
2023-11-09T23:12:04.413Z,99115.44
2023-11-09T23:17:05.642Z,99117.94
2023-11-09T23:22:07.839Z,99102.22
2023-11-09T23:27:08.659Z,99095.31
2023-11-09T23:32:10.057Z,99082.78
2023-11-09T23:37:12.221Z,99075.94
2023-11-09T23:42:13.113Z,99062.94
2023-11-09T23:47:14.000Z,99050.94
2023-11-09T23:52:16.630Z,99049.34
2023-11-09T23:57:17.483Z,99040.63
